Prairie Grove, Iowa
Current Conditions -  °F | °C
As of 10:53 PM on Sunday 19 Oct 2014 (Local Time) from KBRL Reporting Station
Clear Clear  
Wind Chill: 51°   Ceiling: Unl
Heat Index: 51°   Visibility: 10mi
Dew Point: 45°   Wind: 7mph
Humidity: 80%   Direction: 210°SSW
Pressure: 29.95"   Gusts: NA
Location:  40.8198°N, 91.2162°W
Report Text: KBRL 200353Z AUTO 21006KT 10SM CLR 11/07 A2995 RMK AO2 SLP143 T01060072 TSNO
Loading
Personal Weather Stations






























Interactive Weather Map
Tropical Storm Tracking
New forecast layout! Learn more

10-Day Weather Forecast

Advertisements
Track Severe Weather on mobile